Time;durP1;ratioP1;P1;durP2;ratioP2;P2;SDS_P1;SDS_P2;PMS_P1;PMS_P2;Temp;Humidity;BMP_temperature;BMP_pressure;BME280_temperature;BME280_humidity;BME280_pressure;Samples;Min_cycle;Max_cycle;Signal;HPM_P1;HPM_P2
2022/10/10 00:01:14;;;;;;;5.15;2.38;;;;;;;;;;5096111;28;20386;-39
2022/10/10 00:03:39;;;;;;;7.20;2.15;;;;;;;;;;5096280;28;20043;-43
2022/10/10 00:06:05;;;;;;;3.60;2.45;;;;;;;;;;5095912;28;20024;-43
2022/10/10 00:08:30;;;;;;;5.00;2.75;;;;;;;;;;5096195;28;20039;-42
2022/10/10 00:10:55;;;;;;;5.22;2.58;;;;;;;;;;5096126;28;20103;-42
2022/10/10 00:13:20;;;;;;;6.80;2.67;;;;;;;;;;5095858;28;20023;-41
2022/10/10 00:15:46;;;;;;;5.03;2.20;;;;;;;;;;5096127;28;20031;-43
2022/10/10 00:18:11;;;;;;;5.18;2.42;;;;;;;;;;5095785;28;20016;-43
2022/10/10 00:20:36;;;;;;;8.02;2.50;;;;;;;;;;5095623;28;20618;-43
2022/10/10 00:23:02;;;;;;;4.20;2.65;;;;;;;;;;5095836;28;20024;-42
2022/10/10 00:25:27;;;;;;;4.50;2.33;;;;;;;;;;5095957;28;20020;-40
2022/10/10 00:27:52;;;;;;;3.65;2.20;;;;;;;;;;5095996;28;20395;-42
2022/10/10 00:30:17;;;;;;;4.25;2.45;;;;;;;;;;5095549;28;20455;-41
2022/10/10 00:32:43;;;;;;;2.70;1.80;;;;;;;;;;5095605;28;20020;-43
2022/10/10 00:35:08;;;;;;;2.88;2.28;;;;;;;;;;5095436;28;20126;-43
2022/10/10 00:37:33;;;;;;;2.67;2.33;;;;;;;;;;5095349;28;20389;-42
2022/10/10 00:39:59;;;;;;;2.55;1.95;;;;;;;;;;5095550;28;20103;-43
2022/10/10 00:42:24;;;;;;;3.22;1.95;;;;;;;;;;5095419;28;20020;-39
2022/10/10 00:45:08;;;;;;;5.32;2.22;;;;;;;;;;5095665;28;20051;-43
2022/10/10 00:47:33;;;;;;;5.47;2.55;;;;;;;;;;5095256;28;20112;-40
2022/10/10 00:49:58;;;;;;;2.33;1.90;;;;;;;;;;5094688;28;20083;-40
2022/10/10 00:52:24;;;;;;;2.85;2.40;;;;;;;;;;5095223;28;20036;-42
2022/10/10 00:54:49;;;;;;;4.90;2.08;;;;;;;;;;5095095;28;20048;-40
2022/10/10 00:57:14;;;;;;;3.10;2.78;;;;;;;;;;5094526;28;20082;-41
2022/10/10 00:59:41;;;;;;;2.47;2.08;;;;;;;;;;5094998;28;20474;-41
2022/10/10 01:02:06;;;;;;;2.70;2.22;;;;;;;;;;5095195;28;20016;-41
2022/10/10 01:04:36;;;;;;;3.72;2.40;;;;;;;;;;5094608;28;20377;-41
2022/10/10 01:07:03;;;;;;;6.95;2.28;;;;;;;;;;5094913;28;20073;-42
2022/10/10 01:09:28;;;;;;;4.10;2.47;;;;;;;;;;5094706;28;20020;-42
2022/10/10 01:11:57;;;;;;;5.35;2.50;;;;;;;;;;5094794;28;20026;-39
2022/10/10 01:14:23;;;;;;;4.85;2.05;;;;;;;;;;5094769;28;20145;-40
2022/10/10 01:17:11;;;;;;;6.80;2.13;;;;;;;;;;5094633;28;20119;-42
2022/10/10 01:19:36;;;;;;;4.57;2.20;;;;;;;;;;5094492;28;20020;-43
2022/10/10 01:22:01;;;;;;;3.47;2.30;;;;;;;;;;5094664;28;20016;-40
2022/10/10 01:24:36;;;;;;;3.83;2.50;;;;;;;;;;5094579;28;20257;-42
2022/10/10 01:27:14;;;;;;;4.97;2.72;;;;;;;;;;5094455;28;20325;-38
2022/10/10 01:29:42;;;;;;;4.75;2.40;;;;;;;;;;5094165;28;20024;-42
2022/10/10 01:32:10;;;;;;;4.63;2.45;;;;;;;;;;5094553;28;20414;-42
2022/10/10 01:34:53;;;;;;;4.07;2.30;;;;;;;;;;5094410;28;20020;-40
2022/10/10 01:37:20;;;;;;;3.72;2.28;;;;;;;;;;5094288;28;20035;-41
2022/10/10 01:39:53;;;;;;;6.93;3.08;;;;;;;;;;5094295;28;20020;-42
2022/10/10 01:42:21;;;;;;;6.47;2.83;;;;;;;;;;5093893;28;20425;-42
2022/10/10 01:44:46;;;;;;;7.22;2.97;;;;;;;;;;5094338;28;20374;-41
2022/10/10 01:47:12;;;;;;;4.53;2.58;;;;;;;;;;5094269;28;20099;-42
2022/10/10 01:49:38;;;;;;;8.98;3.42;;;;;;;;;;5094178;28;20475;-43
2022/10/10 01:52:16;;;;;;;7.40;2.40;;;;;;;;;;5093927;28;20517;-42
2022/10/10 01:54:51;;;;;;;3.30;2.33;;;;;;;;;;5093796;28;20394;-42
2022/10/10 01:57:22;;;;;;;4.43;2.75;;;;;;;;;;5094067;28;20032;-42
2022/10/10 02:00:06;;;;;;;5.55;2.60;;;;;;;;;;5094330;28;20028;-43
2022/10/10 02:02:37;;;;;;;3.33;2.35;;;;;;;;;;5093761;28;20028;-42
2022/10/10 02:05:10;;;;;;;7.10;2.92;;;;;;;;;;5093580;28;20046;-42
2022/10/10 02:07:51;;;;;;;4.88;2.60;;;;;;;;;;5093924;28;20463;-40
2022/10/10 02:10:19;;;;;;;5.72;2.60;;;;;;;;;;5092936;28;20470;-43
2022/10/10 02:12:46;;;;;;;4.78;2.92;;;;;;;;;;5093803;28;20020;-43
2022/10/10 02:15:13;;;;;;;4.68;2.88;;;;;;;;;;5093564;28;20012;-42
2022/10/10 02:17:39;;;;;;;5.20;2.60;;;;;;;;;;5093228;28;20040;-39
2022/10/10 02:20:06;;;;;;;5.50;2.60;;;;;;;;;;5093716;28;20024;-41
2022/10/10 02:22:32;;;;;;;4.22;2.47;;;;;;;;;;5093360;28;20023;-43
2022/10/10 02:24:57;;;;;;;7.00;3.15;;;;;;;;;;5074960;28;20036;-43
2022/10/10 02:27:31;;;;;;;6.55;2.78;;;;;;;;;;5093123;28;20030;-40
2022/10/10 02:29:58;;;;;;;8.85;3.25;;;;;;;;;;5092725;28;20024;-42
2022/10/10 02:32:27;;;;;;;6.38;2.97;;;;;;;;;;5093118;28;20024;-41
2022/10/10 02:34:52;;;;;;;;;;;;;;;;;;5093833;28;20031;-43
2022/10/10 02:37:18;;;;;;;7.32;3.22;;;;;;;;;;5093253;28;19915;-38
2022/10/10 02:39:45;;;;;;;5.03;3.05;;;;;;;;;;5093200;28;20069;-39
2022/10/10 02:42:13;;;;;;;5.97;2.50;;;;;;;;;;5093137;28;20012;-40
2022/10/10 02:44:38;;;;;;;4.82;2.90;;;;;;;;;;5093014;28;20031;-42
2022/10/10 02:47:03;;;;;;;5.35;2.63;;;;;;;;;;5092870;28;20024;-43
2022/10/10 02:49:30;;;;;;;5.35;3.33;;;;;;;;;;5092979;28;20044;-40
2022/10/10 02:51:55;;;;;;;4.45;2.97;;;;;;;;;;5093371;28;20020;-43
2022/10/10 02:54:21;;;;;;;7.68;3.05;;;;;;;;;;5093353;28;20020;-42
2022/10/10 02:56:46;;;;;;;5.07;2.90;;;;;;;;;;5092926;28;20027;-39
2022/10/10 02:59:11;;;;;;;6.80;3.25;;;;;;;;;;5092880;28;20033;-43
2022/10/10 03:01:36;;;;;;;4.50;2.70;;;;;;;;;;5092674;28;20012;-41
2022/10/10 03:04:02;;;;;;;6.63;3.50;;;;;;;;;;5093165;28;20023;-38
2022/10/10 03:06:27;;;;;;;5.65;2.90;;;;;;;;;;5093029;28;20397;-42
2022/10/10 03:08:52;;;;;;;5.65;3.10;;;;;;;;;;5092931;28;20012;-42
2022/10/10 03:11:18;;;;;;;3.80;2.70;;;;;;;;;;5092949;28;20510;-42
2022/10/10 03:13:43;;;;;;;5.80;3.53;;;;;;;;;;5092874;28;20073;-41
2022/10/10 03:16:10;;;;;;;8.25;3.67;;;;;;;;;;5092460;28;20040;-43
2022/10/10 03:18:35;;;;;;;4.80;3.35;;;;;;;;;;5092865;28;20020;-42
2022/10/10 03:21:00;;;;;;;6.35;3.72;;;;;;;;;;5094987;28;20016;-43
2022/10/10 03:23:25;;;;;;;6.72;3.83;;;;;;;;;;5097006;28;20023;-41
2022/10/10 03:25:51;;;;;;;6.10;3.30;;;;;;;;;;5096810;28;20106;-42
2022/10/10 03:28:16;;;;;;;7.25;3.33;;;;;;;;;;5096862;28;20024;-40
2022/10/10 03:30:41;;;;;;;8.73;3.17;;;;;;;;;;5096790;28;20016;-37
2022/10/10 03:33:07;;;;;;;6.40;3.70;;;;;;;;;;5096622;28;20020;-43
2022/10/10 03:35:32;;;;;;;5.90;3.28;;;;;;;;;;5096501;28;20027;-42
2022/10/10 03:37:57;;;;;;;8.15;3.38;;;;;;;;;;5096515;28;20119;-41
2022/10/10 03:40:23;;;;;;;6.20;3.60;;;;;;;;;;5096528;28;20020;-42
2022/10/10 03:42:48;;;;;;;5.28;3.80;;;;;;;;;;5096352;28;20020;-42
2022/10/10 03:45:13;;;;;;;11.23;3.80;;;;;;;;;;5096491;28;20023;-42
2022/10/10 03:47:38;;;;;;;8.43;4.30;;;;;;;;;;5096515;28;20244;-42
2022/10/10 03:50:04;;;;;;;6.47;3.78;;;;;;;;;;5096120;28;20048;-43
2022/10/10 03:52:29;;;;;;;6.82;3.58;;;;;;;;;;5096247;28;20027;-41
2022/10/10 03:54:54;;;;;;;8.57;4.25;;;;;;;;;;5096311;28;20027;-43
2022/10/10 03:57:20;;;;;;;8.80;4.30;;;;;;;;;;5096224;28;20067;-42
2022/10/10 03:59:45;;;;;;;7.25;4.00;;;;;;;;;;5096177;28;20020;-42
2022/10/10 04:02:10;;;;;;;5.60;3.90;;;;;;;;;;5095942;28;20024;-39
2022/10/10 04:04:35;;;;;;;10.43;4.60;;;;;;;;;;5096277;28;20069;-42
2022/10/10 04:07:01;;;;;;;8.25;4.05;;;;;;;;;;5096329;28;20060;-40
2022/10/10 04:09:26;;;;;;;8.75;4.40;;;;;;;;;;5096149;28;20024;-42
2022/10/10 04:11:51;;;;;;;10.63;5.15;;;;;;;;;;5095934;28;20024;-41
2022/10/10 04:14:16;;;;;;;10.13;5.28;;;;;;;;;;5095900;28;20107;-41
2022/10/10 04:16:42;;;;;;;10.55;4.30;;;;;;;;;;5095655;28;20035;-43
2022/10/10 04:19:07;;;;;;;7.82;4.53;;;;;;;;;;5095665;28;20158;-42
2022/10/10 04:21:32;;;;;;;7.10;4.53;;;;;;;;;;5095855;28;20465;-42
2022/10/10 04:23:58;;;;;;;7.75;4.55;;;;;;;;;;5095870;28;20020;-40
2022/10/10 04:26:23;;;;;;;8.65;3.88;;;;;;;;;;5095906;28;20020;-42
2022/10/10 04:28:48;;;;;;;8.68;4.60;;;;;;;;;;5095605;28;20094;-38
2022/10/10 04:31:13;;;;;;;9.95;4.30;;;;;;;;;;5095407;28;20069;-43
2022/10/10 04:33:39;;;;;;;10.05;5.25;;;;;;;;;;5094392;28;20023;-40
2022/10/10 04:36:04;;;;;;;11.63;4.75;;;;;;;;;;5095581;28;20066;-41
2022/10/10 04:38:29;;;;;;;11.20;4.88;;;;;;;;;;5095617;28;20020;-42
2022/10/10 04:40:54;;;;;;;11.73;4.57;;;;;;;;;;5095437;28;20024;-41
2022/10/10 04:43:20;;;;;;;9.00;4.63;;;;;;;;;;5095230;28;20073;-40
2022/10/10 04:45:45;;;;;;;12.18;4.68;;;;;;;;;;5095355;28;20028;-41
2022/10/10 04:48:11;;;;;;;11.68;4.57;;;;;;;;;;5095093;28;20488;-42
2022/10/10 04:50:36;;;;;;;14.45;4.78;;;;;;;;;;5095287;28;20539;-40
2022/10/10 04:53:01;;;;;;;12.00;4.75;;;;;;;;;;5095286;28;20016;-41
2022/10/10 04:55:26;;;;;;;13.10;4.72;;;;;;;;;;5095622;28;20024;-42
2022/10/10 04:57:52;;;;;;;9.48;4.72;;;;;;;;;;5095128;28;20036;-37
2022/10/10 05:00:17;;;;;;;8.88;4.78;;;;;;;;;;5095354;28;20049;-40
2022/10/10 05:02:42;;;;;;;11.27;5.32;;;;;;;;;;5094903;28;20020;-42
2022/10/10 05:05:08;;;;;;;12.20;4.70;;;;;;;;;;5094958;28;20103;-42
2022/10/10 05:07:33;;;;;;;7.70;4.75;;;;;;;;;;5095134;28;20016;-42
2022/10/10 05:09:58;;;;;;;8.35;4.55;;;;;;;;;;5094956;28;20023;-40
2022/10/10 05:12:24;;;;;;;11.48;5.60;;;;;;;;;;5094810;28;20026;-42
2022/10/10 05:14:49;;;;;;;11.80;5.22;;;;;;;;;;5094720;28;20529;-42
2022/10/10 05:17:14;;;;;;;9.77;4.57;;;;;;;;;;5094737;28;20544;-41
2022/10/10 05:19:39;;;;;;;14.73;5.00;;;;;;;;;;5094679;28;20345;-43
2022/10/10 05:22:05;;;;;;;15.40;5.80;;;;;;;;;;5094745;28;20012;-42
2022/10/10 05:24:30;;;;;;;15.10;4.40;;;;;;;;;;5094529;28;20016;-42
2022/10/10 05:26:55;;;;;;;7.50;4.50;;;;;;;;;;5094544;28;20027;-43
2022/10/10 05:29:21;;;;;;;10.98;4.38;;;;;;;;;;5094468;28;20019;-40
2022/10/10 05:31:46;;;;;;;9.18;4.93;;;;;;;;;;5094346;28;20357;-41
2022/10/10 05:34:12;;;;;;;9.37;4.60;;;;;;;;;;5094038;28;20020;-43
2022/10/10 05:36:38;;;;;;;9.68;4.55;;;;;;;;;;5094320;28;20320;-42
2022/10/10 05:39:03;;;;;;;9.85;5.47;;;;;;;;;;5094022;28;20052;-43
2022/10/10 05:41:29;;;;;;;12.38;5.03;;;;;;;;;;5094053;28;20028;-43
2022/10/10 05:43:54;;;;;;;7.10;4.22;;;;;;;;;;5093360;28;20528;-40
2022/10/10 05:46:22;;;;;;;9.93;4.93;;;;;;;;;;5085969;28;20322;-41
2022/10/10 05:48:47;;;;;;;10.85;4.72;;;;;;;;;;5073558;28;20020;-41
2022/10/10 05:51:12;;;;;;;8.75;3.65;;;;;;;;;;5083772;28;20023;-41
2022/10/10 05:53:37;;;;;;;5.50;3.80;;;;;;;;;;5089276;28;20027;-42
2022/10/10 05:56:04;;;;;;;7.32;3.50;;;;;;;;;;5073289;28;20491;-43
2022/10/10 05:58:29;;;;;;;6.22;3.22;;;;;;;;;;5075685;28;20013;-41
2022/10/10 06:01:00;;;;;;;8.57;3.65;;;;;;;;;;5081980;28;20065;-39
2022/10/10 06:03:25;;;;;;;9.35;3.55;;;;;;;;;;5078826;28;20063;-42
2022/10/10 06:05:51;;;;;;;6.63;3.65;;;;;;;;;;5082674;28;20060;-41
2022/10/10 06:08:16;;;;;;;9.85;3.83;;;;;;;;;;5074467;28;20081;-43
2022/10/10 06:10:43;;;;;;;5.65;3.35;;;;;;;;;;5075140;28;20104;-42
2022/10/10 06:13:08;;;;;;;8.48;3.10;;;;;;;;;;5069294;28;20074;-44
2022/10/10 06:15:34;;;;;;;8.90;4.30;;;;;;;;;;5089438;28;20020;-40
2022/10/10 06:17:59;;;;;;;6.78;3.70;;;;;;;;;;5092123;28;20415;-43
2022/10/10 06:20:24;;;;;;;7.17;3.53;;;;;;;;;;5092237;28;20323;-38
2022/10/10 06:22:50;;;;;;;6.63;3.20;;;;;;;;;;5091973;28;20812;-42
2022/10/10 06:25:15;;;;;;;6.38;3.47;;;;;;;;;;5092106;28;20052;-42
2022/10/10 06:27:41;;;;;;;9.10;3.47;;;;;;;;;;5092913;28;20019;-43
2022/10/10 06:30:06;;;;;;;6.07;2.85;;;;;;;;;;5092763;28;20054;-42
2022/10/10 06:32:31;;;;;;;8.48;3.03;;;;;;;;;;5092565;28;20020;-42
2022/10/10 06:34:57;;;;;;;8.87;3.60;;;;;;;;;;5092053;28;20016;-42
2022/10/10 06:37:22;;;;;;;6.70;3.25;;;;;;;;;;5092876;28;20383;-40
2022/10/10 06:39:47;;;;;;;6.23;3.27;;;;;;;;;;5092626;28;20026;-39
2022/10/10 06:42:12;;;;;;;7.47;2.80;;;;;;;;;;5092645;28;20379;-41
2022/10/10 06:44:38;;;;;;;5.57;2.87;;;;;;;;;;5083703;28;20237;-38
2022/10/10 06:47:03;;;;;;;14.13;3.30;;;;;;;;;;5081050;28;20676;-37
2022/10/10 06:49:28;;;;;;;8.98;2.63;;;;;;;;;;5084571;28;20051;-43
2022/10/10 06:51:54;;;;;;;7.10;2.50;;;;;;;;;;5090342;28;20039;-40
2022/10/10 06:54:19;;;;;;;7.00;2.60;;;;;;;;;;5071740;28;20027;-42
2022/10/10 06:56:44;;;;;;;5.80;2.50;;;;;;;;;;5084303;28;20027;-38
2022/10/10 06:59:09;;;;;;;9.53;2.50;;;;;;;;;;5092440;28;20364;-40
2022/10/10 07:01:35;;;;;;;5.80;3.13;;;;;;;;;;5092368;28;20236;-40
2022/10/10 07:04:00;;;;;;;3.67;2.10;;;;;;;;;;5091588;28;20324;-42
2022/10/10 07:06:25;;;;;;;6.43;2.63;;;;;;;;;;5092358;28;20244;-39
2022/10/10 07:08:50;;;;;;;5.45;2.30;;;;;;;;;;5092032;28;20237;-39
2022/10/10 07:11:16;;;;;;;6.83;2.60;;;;;;;;;;5092467;28;20023;-43
2022/10/10 07:13:41;;;;;;;3.72;2.10;;;;;;;;;;5091969;28;20237;-43
2022/10/10 07:16:06;;;;;;;6.47;2.78;;;;;;;;;;5074112;28;20036;-41
2022/10/10 07:18:32;;;;;;;7.30;2.53;;;;;;;;;;5092147;28;20062;-41
2022/10/10 07:20:58;;;;;;;4.90;2.20;;;;;;;;;;5091821;28;20387;-40
2022/10/10 07:23:24;;;;;;;6.07;2.40;;;;;;;;;;5092076;28;20016;-38
2022/10/10 07:25:49;;;;;;;4.40;2.13;;;;;;;;;;5092063;28;20482;-44
2022/10/10 07:28:14;;;;;;;6.85;2.55;;;;;;;;;;5092275;28;20020;-40
2022/10/10 07:30:42;;;;;;;3.28;1.73;;;;;;;;;;5092121;28;20023;-42
2022/10/10 07:33:07;;;;;;;4.57;2.08;;;;;;;;;;5091732;28;20023;-42
2022/10/10 07:35:33;;;;;;;7.25;2.22;;;;;;;;;;5079695;28;20442;-43
2022/10/10 07:37:58;;;;;;;2.47;1.83;;;;;;;;;;5081745;28;20032;-42
2022/10/10 07:40:23;;;;;;;4.50;1.80;;;;;;;;;;5073244;28;20016;-41
2022/10/10 07:42:49;;;;;;;6.20;2.13;;;;;;;;;;5071490;28;20291;-43
2022/10/10 07:45:14;;;;;;;3.33;1.75;;;;;;;;;;5071212;28;20086;-42
2022/10/10 07:47:40;;;;;;;4.57;1.70;;;;;;;;;;5073029;28;20433;-42
2022/10/10 07:50:06;;;;;;;7.70;1.90;;;;;;;;;;5074329;28;20548;-39
2022/10/10 07:52:32;;;;;;;3.83;1.77;;;;;;;;;;5080141;28;20277;-40
2022/10/10 07:54:58;;;;;;;8.35;1.90;;;;;;;;;;5091470;28;20103;-35
2022/10/10 07:57:23;;;;;;;4.53;2.23;;;;;;;;;;5082716;28;20118;-37
2022/10/10 07:59:48;;;;;;;9.50;1.97;;;;;;;;;;5092271;28;20732;-43
2022/10/10 08:02:14;;;;;;;7.33;1.63;;;;;;;;;;5075319;28;20368;-42
2022/10/10 08:04:39;;;;;;;7.57;1.75;;;;;;;;;;5081750;28;20028;-42
2022/10/10 08:07:05;;;;;;;3.60;2.03;;;;;;;;;;5073299;28;20032;-40
2022/10/10 08:09:30;;;;;;;3.08;1.60;;;;;;;;;;5092886;28;20031;-42
2022/10/10 08:11:55;;;;;;;6.03;2.10;;;;;;;;;;5095479;28;20498;-44
2022/10/10 08:14:20;;;;;;;4.80;1.97;;;;;;;;;;5094950;28;20401;-41
2022/10/10 08:16:46;;;;;;;5.00;1.70;;;;;;;;;;5089178;28;20047;-41
2022/10/10 08:19:11;;;;;;;6.18;1.60;;;;;;;;;;5084036;28;20255;-44
2022/10/10 08:21:36;;;;;;;6.88;2.35;;;;;;;;;;5077603;28;20074;-42
2022/10/10 08:24:02;;;;;;;4.55;1.70;;;;;;;;;;5074428;28;20017;-43
2022/10/10 08:26:27;;;;;;;2.47;1.65;;;;;;;;;;5074813;28;20094;-43
2022/10/10 08:28:52;;;;;;;5.70;1.77;;;;;;;;;;5075027;28;20357;-39
2022/10/10 08:31:19;;;;;;;4.13;2.23;;;;;;;;;;5086532;28;20486;-42
2022/10/10 08:33:45;;;;;;;4.20;1.63;;;;;;;;;;5094615;28;20245;-45
2022/10/10 08:36:13;;;;;;;2.70;1.88;;;;;;;;;;5091196;28;20036;-43
2022/10/10 08:38:38;;;;;;;6.95;1.95;;;;;;;;;;5084877;28;20032;-43
2022/10/10 08:41:09;;;;;;;5.70;2.20;;;;;;;;;;5085660;28;20524;-44
2022/10/10 08:43:46;;;;;;;5.72;2.30;;;;;;;;;;5076423;28;20028;-42
2022/10/10 08:46:18;;;;;;;4.82;1.88;;;;;;;;;;5074371;28;20032;-45
2022/10/10 08:48:44;;;;;;;3.60;1.80;;;;;;;;;;5074042;28;20099;-43
2022/10/10 08:51:13;;;;;;;8.93;2.30;;;;;;;;;;5073940;28;20445;-42
2022/10/10 08:53:40;;;;;;;8.57;2.15;;;;;;;;;;5075030;28;20029;-44
2022/10/10 08:56:06;;;;;;;14.05;2.28;;;;;;;;;;5077159;28;20032;-44
2022/10/10 08:58:31;;;;;;;6.70;2.40;;;;;;;;;;5073973;28;20043;-44
2022/10/10 09:01:03;;;;;;;8.02;1.73;;;;;;;;;;5074018;28;20024;-43
2022/10/10 09:03:38;;;;;;;4.03;1.70;;;;;;;;;;5072500;28;20032;-44
2022/10/10 09:06:18;;;;;;;7.07;2.13;;;;;;;;;;5072007;28;20032;-39
2022/10/10 09:08:49;;;;;;;3.67;2.10;;;;;;;;;;5074131;28;20126;-41
2022/10/10 09:11:21;;;;;;;6.00;2.20;;;;;;;;;;5073979;28;20027;-43
2022/10/10 09:13:57;;;;;;;7.57;1.83;;;;;;;;;;5073194;28;20054;-42
2022/10/10 09:16:45;;;;;;;2.95;1.75;;;;;;;;;;5071561;28;20035;-43
2022/10/10 09:19:23;;;;;;;2.08;1.65;;;;;;;;;;5056777;28;20041;-42
2022/10/10 09:21:50;;;;;;;6.53;2.10;;;;;;;;;;5071873;28;20730;-43
2022/10/10 09:24:18;;;;;;;5.05;2.00;;;;;;;;;;5071605;28;20130;-44
2022/10/10 09:26:59;;;;;;;11.37;2.93;;;;;;;;;;5072392;28;20021;-42
2022/10/10 09:29:56;;;;;;;3.92;1.55;;;;;;;;;;5080697;28;20065;-42
2022/10/10 09:32:24;;;;;;;5.25;2.28;;;;;;;;;;5027127;28;20040;-45
2022/10/10 09:34:57;;;;;;;5.25;1.75;;;;;;;;;;5072837;28;20497;-43
2022/10/10 09:37:24;;;;;;;7.32;2.00;;;;;;;;;;5073390;28;20037;-43
2022/10/10 09:39:52;;;;;;;5.90;1.88;;;;;;;;;;5072464;28;20025;-47
2022/10/10 09:42:20;;;;;;;4.83;2.13;;;;;;;;;;5081615;28;20024;-44
2022/10/10 09:44:45;;;;;;;7.45;1.85;;;;;;;;;;5080800;28;20252;-43
2022/10/10 09:47:15;;;;;;;3.88;1.90;;;;;;;;;;5090758;28;20032;-44
2022/10/10 09:49:40;;;;;;;6.70;1.95;;;;;;;;;;5092006;28;20036;-44
2022/10/10 09:52:21;;;;;;;3.53;1.77;;;;;;;;;;5084142;28;20052;-43
2022/10/10 09:54:48;;;;;;;8.38;1.88;;;;;;;;;;5075308;28;20042;-44
2022/10/10 09:57:14;;;;;;;6.03;1.63;;;;;;;;;;5079199;28;20376;-44
2022/10/10 09:59:46;;;;;;;5.00;2.08;;;;;;;;;;5090482;28;20031;-45
2022/10/10 10:02:14;;;;;;;3.97;1.73;;;;;;;;;;5089478;28;20040;-43
2022/10/10 10:04:39;;;;;;;5.82;1.92;;;;;;;;;;5073474;28;20075;-44
2022/10/10 10:07:18;;;;;;;3.20;1.70;;;;;;;;;;5079694;28;20471;-44
2022/10/10 10:10:06;;;;;;;5.05;1.70;;;;;;;;;;5070704;28;20021;-45
2022/10/10 10:12:42;;;;;;;6.80;1.83;;;;;;;;;;5057214;28;20028;-43
2022/10/10 10:15:18;;;;;;;4.85;1.60;;;;;;;;;;5072933;28;20023;-45
2022/10/10 10:17:43;;;;;;;3.05;1.30;;;;;;;;;;5077912;28;20117;-45
2022/10/10 10:20:40;;;;;;;12.90;2.85;;;;;;;;;;5071806;28;20055;-43
2022/10/10 10:23:25;;;;;;;6.40;2.20;;;;;;;;;;5016899;28;20088;-44
2022/10/10 10:26:01;;;;;;;7.40;1.75;;;;;;;;;;5074766;28;20012;-44
2022/10/10 10:28:27;;;;;;;4.75;1.50;;;;;;;;;;5081448;28;20052;-43
2022/10/10 10:30:54;;;;;;;2.88;2.13;;;;;;;;;;5071423;28;20059;-44
2022/10/10 10:33:38;;;;;;;4.93;1.88;;;;;;;;;;5072046;28;20024;-45
2022/10/10 10:36:21;;;;;;;6.75;1.88;;;;;;;;;;5072346;28;20530;-44
2022/10/10 10:38:47;;;;;;;4.15;1.67;;;;;;;;;;5079725;28;20028;-44
2022/10/10 10:41:20;;;;;;;6.00;1.97;;;;;;;;;;5076562;28;20101;-42
2022/10/10 10:44:12;;;;;;;4.30;1.98;;;;;;;;;;5071566;28;20495;-44
2022/10/10 10:46:37;;;;;;;4.68;1.83;;;;;;;;;;5034925;28;20079;-43
2022/10/10 10:49:03;;;;;;;4.83;1.73;;;;;;;;;;5076493;28;20047;-44
2022/10/10 10:51:34;;;;;;;3.67;1.40;;;;;;;;;;5078757;28;20466;-43
2022/10/10 10:53:59;;;;;;;5.18;1.77;;;;;;;;;;5078833;28;20359;-43
2022/10/10 10:56:45;;;;;;;2.63;1.50;;;;;;;;;;5080674;28;20035;-43
2022/10/10 10:59:29;;;;;;;2.72;1.88;;;;;;;;;;5072272;28;20017;-40
2022/10/10 11:01:56;;;;;;;2.83;1.77;;;;;;;;;;5077342;28;20113;-44
2022/10/10 11:04:32;;;;;;;3.05;1.67;;;;;;;;;;5078854;28;20028;-42
2022/10/10 11:06:58;;;;;;;9.70;2.20;;;;;;;;;;5084946;28;20034;-42
2022/10/10 11:09:43;;;;;;;3.60;1.98;;;;;;;;;;5092254;28;20103;-43
2022/10/10 11:12:15;;;;;;;6.03;1.98;;;;;;;;;;5092308;28;20042;-41
2022/10/10 11:14:52;;;;;;;7.10;1.98;;;;;;;;;;5091772;28;20081;-44
2022/10/10 11:17:27;;;;;;;13.38;2.28;;;;;;;;;;5077170;28;20106;-43
2022/10/10 11:19:58;;;;;;;4.25;2.30;;;;;;;;;;5083620;28;20506;-40
2022/10/10 11:22:28;;;;;;;6.40;2.17;;;;;;;;;;5080431;28;20035;-44
2022/10/10 11:25:02;;;;;;;3.53;1.92;;;;;;;;;;5073079;28;20060;-43
2022/10/10 11:27:27;;;;;;;3.40;2.38;;;;;;;;;;5053476;28;20398;-42
2022/10/10 11:30:15;;;;;;;10.30;3.00;;;;;;;;;;5072438;28;20028;-43
2022/10/10 11:32:47;;;;;;;4.43;2.25;;;;;;;;;;5076673;28;20474;-43
2022/10/10 11:35:31;;;;;;;7.75;2.67;;;;;;;;;;5089691;28;20048;-41
2022/10/10 11:38:01;;;;;;;6.75;2.83;;;;;;;;;;5080375;28;20031;-44
2022/10/10 11:40:41;;;;;;;9.70;2.67;;;;;;;;;;5071751;28;20426;-43
2022/10/10 11:43:13;;;;;;;7.80;2.42;;;;;;;;;;5075107;28;20070;-43
2022/10/10 11:45:44;;;;;;;5.78;3.15;;;;;;;;;;5075185;28;20537;-43
2022/10/10 11:48:17;;;;;;;5.15;2.33;;;;;;;;;;5075511;28;20062;-41
2022/10/10 11:50:42;;;;;;;9.65;2.55;;;;;;;;;;5075179;28;20032;-43
2022/10/10 11:53:26;;;;;;;10.73;5.32;;;;;;;;;;5075600;28;20045;-42
2022/10/10 11:55:55;;;;;;;4.53;2.90;;;;;;;;;;5080019;28;20024;-45
2022/10/10 11:58:26;;;;;;;9.35;2.70;;;;;;;;;;5095593;28;20027;-45
2022/10/10 12:00:55;;;;;;;9.50;3.65;;;;;;;;;;5075915;28;20047;-44
2022/10/10 12:03:20;;;;;;;9.82;2.78;;;;;;;;;;5078038;28;20021;-43
2022/10/10 12:05:49;;;;;;;10.30;3.20;;;;;;;;;;5074360;28;20131;-41
2022/10/10 12:08:14;;;;;;;7.28;2.47;;;;;;;;;;5075422;28;20471;-46
2022/10/10 12:10:51;;;;;;;10.02;3.60;;;;;;;;;;5095034;28;20028;-43
2022/10/10 12:13:23;;;;;;;5.50;2.90;;;;;;;;;;5095059;28;20103;-39
2022/10/10 12:15:50;;;;;;;7.65;2.75;;;;;;;;;;5094239;28;20536;-43
2022/10/10 12:18:41;;;;;;;10.57;3.25;;;;;;;;;;5095299;28;20390;-45
2022/10/10 12:21:27;;;;;;;10.05;2.78;;;;;;;;;;5042552;28;20032;-42
2022/10/10 12:23:59;;;;;;;25.25;7.85;;;;;;;;;;5076528;28;20054;-44
2022/10/10 12:26:45;;;;;;;13.20;4.18;;;;;;;;;;5074245;28;20119;-45
2022/10/10 12:29:10;;;;;;;9.15;3.17;;;;;;;;;;5074642;28;20020;-43
2022/10/10 12:31:38;;;;;;;9.07;4.75;;;;;;;;;;5074655;28;20023;-43
2022/10/10 12:34:07;;;;;;;12.27;5.88;;;;;;;;;;5074356;28;20032;-41
2022/10/10 12:36:32;;;;;;;18.27;8.30;;;;;;;;;;5055776;28;20036;-43
2022/10/10 12:39:05;;;;;;;16.27;4.35;;;;;;;;;;5075051;28;20616;-40
2022/10/10 12:41:49;;;;;;;11.13;3.80;;;;;;;;;;5091726;28;20509;-44
2022/10/10 12:44:21;;;;;;;10.45;4.05;;;;;;;;;;5092893;28;20034;-43
2022/10/10 12:47:06;;;;;;;11.65;3.90;;;;;;;;;;5090269;28;20518;-43
2022/10/10 12:49:33;;;;;;;9.57;3.38;;;;;;;;;;5074549;28;20479;-43
2022/10/10 12:52:00;;;;;;;7.15;3.08;;;;;;;;;;5074212;28;20062;-44
2022/10/10 12:54:30;;;;;;;7.32;3.05;;;;;;;;;;5077439;28;20020;-46
2022/10/10 12:57:13;;;;;;;7.80;3.28;;;;;;;;;;5084538;28;20037;-41
2022/10/10 12:59:39;;;;;;;19.75;4.28;;;;;;;;;;5073741;28;20028;-38
2022/10/10 13:02:17;;;;;;;5.45;3.92;;;;;;;;;;5074984;28;20464;-45
2022/10/10 13:04:44;;;;;;;4.63;3.20;;;;;;;;;;5084875;28;20017;-40
2022/10/10 13:07:13;;;;;;;11.48;3.80;;;;;;;;;;5080527;28;20024;-40
2022/10/10 13:09:39;;;;;;;11.13;3.78;;;;;;;;;;5079122;28;20028;-40
2022/10/10 13:12:05;;;;;;;7.93;3.10;;;;;;;;;;5081981;28;20075;-43
2022/10/10 13:14:44;;;;;;;6.88;3.20;;;;;;;;;;5075905;28;20666;-42
2022/10/10 13:17:22;;;;;;;8.85;2.88;;;;;;;;;;5078845;28;20372;-40
2022/10/10 13:19:48;;;;;;;10.98;3.75;;;;;;;;;;5079834;28;20099;-42
2022/10/10 13:22:14;;;;;;;9.68;3.83;;;;;;;;;;5073953;28;20111;-42
2022/10/10 13:24:40;;;;;;;7.82;3.90;;;;;;;;;;5072614;28;20020;-44
2022/10/10 13:27:05;;;;;;;9.20;3.60;;;;;;;;;;5083609;28;20069;-43
2022/10/10 13:29:35;;;;;;;8.68;4.68;;;;;;;;;;5082011;28;20401;-41
2022/10/10 13:32:07;;;;;;;7.00;4.18;;;;;;;;;;5076466;28;20042;-42
2022/10/10 13:34:35;;;;;;;11.77;3.72;;;;;;;;;;5074684;28;20033;-41
2022/10/10 13:37:02;;;;;;;11.90;3.53;;;;;;;;;;5073281;28;20102;-40
2022/10/10 13:39:28;;;;;;;9.43;3.30;;;;;;;;;;5083002;28;20025;-41
2022/10/10 13:41:54;;;;;;;8.88;4.07;;;;;;;;;;5085596;28;20031;-38
2022/10/10 13:44:24;;;;;;;10.27;3.83;;;;;;;;;;5082893;28;20025;-44
2022/10/10 13:46:49;;;;;;;10.55;4.00;;;;;;;;;;5081217;28;20020;-42
2022/10/10 13:49:25;;;;;;;9.82;4.10;;;;;;;;;;5093242;28;20024;-40
2022/10/10 13:52:01;;;;;;;8.57;3.90;;;;;;;;;;5092457;28;20129;-39
2022/10/10 13:54:36;;;;;;;7.82;3.83;;;;;;;;;;5085903;28;20028;-40
2022/10/10 13:57:02;;;;;;;11.55;4.03;;;;;;;;;;5086677;28;20028;-37
2022/10/10 13:59:28;;;;;;;6.20;3.33;;;;;;;;;;5092263;28;20027;-42
2022/10/10 14:01:57;;;;;;;8.27;4.13;;;;;;;;;;5093229;28;20023;-42
2022/10/10 14:04:46;;;;;;;4.20;3.33;;;;;;;;;;5090971;28;20491;-41
2022/10/10 14:07:14;;;;;;;9.48;4.20;;;;;;;;;;5079113;28;20038;-42
2022/10/10 14:09:41;;;;;;;13.03;4.17;;;;;;;;;;5091609;28;20165;-42
2022/10/10 14:12:16;;;;;;;8.02;4.20;;;;;;;;;;5072836;28;20279;-46
2022/10/10 14:14:48;;;;;;;12.90;4.18;;;;;;;;;;5073475;28;20052;-46
2022/10/10 14:17:14;;;;;;;14.65;4.13;;;;;;;;;;5083335;28;20463;-41
2022/10/10 14:19:40;;;;;;;11.38;4.75;;;;;;;;;;5091920;28;20040;-40
2022/10/10 14:22:05;;;;;;;8.35;4.70;;;;;;;;;;5087657;28;20467;-45
2022/10/10 14:24:30;;;;;;;7.40;4.33;;;;;;;;;;5071027;28;20031;-45
2022/10/10 14:26:56;;;;;;;12.02;5.50;;;;;;;;;;5086685;28;20716;-42
2022/10/10 14:29:21;;;;;;;14.60;4.63;;;;;;;;;;5086307;28;20031;-45
2022/10/10 14:31:47;;;;;;;10.27;4.30;;;;;;;;;;5075361;28;20261;-43
2022/10/10 14:34:13;;;;;;;10.65;3.75;;;;;;;;;;5071247;28;20361;-42
2022/10/10 14:36:40;;;;;;;7.43;3.95;;;;;;;;;;5069743;28;20076;-43
2022/10/10 14:39:06;;;;;;;7.60;4.25;;;;;;;;;;5070203;28;20682;-43
2022/10/10 14:41:31;;;;;;;13.88;4.93;;;;;;;;;;5072954;28;20091;-38
2022/10/10 14:43:56;;;;;;;13.93;5.35;;;;;;;;;;5070884;28;20024;-43
2022/10/10 14:46:21;;;;;;;12.23;4.83;;;;;;;;;;5072856;28;20434;-42
2022/10/10 14:48:47;;;;;;;17.73;5.80;;;;;;;;;;5073185;28;20273;-41